sensor_id;sensor_type;location;lat;lon;timestamp;pressure;altitude;pressure_sealevel;temperature;humidity
4449;BME280;2237;51.870;6.160;2022-07-29T00:00:09;101568.41;;;20.98;43.40
4449;BME280;2237;51.870;6.160;2022-07-29T00:02:36;101574.47;;;21.00;43.55
4449;BME280;2237;51.870;6.160;2022-07-29T00:05:04;101571.06;;;20.98;44.21
4449;BME280;2237;51.870;6.160;2022-07-29T00:07:52;101559.22;;;20.88;44.55
4449;BME280;2237;51.870;6.160;2022-07-29T00:10:33;101555.38;;;20.77;45.10
4449;BME280;2237;51.870;6.160;2022-07-29T00:13:00;101560.03;;;20.72;45.41
4449;BME280;2237;51.870;6.160;2022-07-29T00:15:27;101553.06;;;20.71;45.50
4449;BME280;2237;51.870;6.160;2022-07-29T00:17:54;101547.91;;;20.68;45.84
4449;BME280;2237;51.870;6.160;2022-07-29T00:20:21;101535.94;;;20.61;45.97
4449;BME280;2237;51.870;6.160;2022-07-29T00:22:48;101538.50;;;20.63;45.87
4449;BME280;2237;51.870;6.160;2022-07-29T00:25:14;101538.41;;;20.64;45.96
4449;BME280;2237;51.870;6.160;2022-07-29T00:27:41;101548.25;;;20.62;46.57
4449;BME280;2237;51.870;6.160;2022-07-29T00:30:09;101535.06;;;20.61;46.42
4449;BME280;2237;51.870;6.160;2022-07-29T00:32:35;101535.22;;;20.58;46.50
4449;BME280;2237;51.870;6.160;2022-07-29T00:35:03;101541.31;;;20.60;46.23
4449;BME280;2237;51.870;6.160;2022-07-29T00:37:48;101538.91;;;20.55;46.55
4449;BME280;2237;51.870;6.160;2022-07-29T00:40:15;101537.44;;;20.50;46.90
4449;BME280;2237;51.870;6.160;2022-07-29T00:42:50;101537.38;;;20.51;46.98
4449;BME280;2237;51.870;6.160;2022-07-29T00:45:17;101532.13;;;20.50;47.28
4449;BME280;2237;51.870;6.160;2022-07-29T00:47:45;101529.75;;;20.45;47.30
4449;BME280;2237;51.870;6.160;2022-07-29T00:50:12;101529.75;;;20.45;47.36
4449;BME280;2237;51.870;6.160;2022-07-29T00:52:41;101524.59;;;20.42;47.71
4449;BME280;2237;51.870;6.160;2022-07-29T00:55:11;101525.53;;;20.41;47.75
4449;BME280;2237;51.870;6.160;2022-07-29T00:57:38;101522.03;;;20.41;47.53
4449;BME280;2237;51.870;6.160;2022-07-29T01:00:08;101521.25;;;20.39;47.37
4449;BME280;2237;51.870;6.160;2022-07-29T01:02:35;101516.06;;;20.37;47.82
4449;BME280;2237;51.870;6.160;2022-07-29T01:05:04;101526.97;;;20.31;48.17
4449;BME280;2237;51.870;6.160;2022-07-29T01:07:33;101511.41;;;20.25;48.48
4449;BME280;2237;51.870;6.160;2022-07-29T01:10:03;101510.50;;;20.24;48.58
4449;BME280;2237;51.870;6.160;2022-07-29T01:12:30;101520.22;;;20.24;48.39
4449;BME280;2237;51.870;6.160;2022-07-29T01:15:01;101514.22;;;20.20;48.70
4449;BME280;2237;51.870;6.160;2022-07-29T01:17:45;101520.38;;;20.21;48.74
4449;BME280;2237;51.870;6.160;2022-07-29T01:29:26;101509.66;;;20.07;49.52
4449;BME280;2237;51.870;6.160;2022-07-29T01:32:12;101500.47;;;19.97;50.04
4449;BME280;2237;51.870;6.160;2022-07-29T01:38:01;101505.94;;;19.94;50.02
4449;BME280;2237;51.870;6.160;2022-07-29T01:43:20;101511.84;;;19.99;50.13
4449;BME280;2237;51.870;6.160;2022-07-29T01:45:58;101514.53;;;19.97;49.96
4449;BME280;2237;51.870;6.160;2022-07-29T01:48:41;101519.91;;;19.96;50.38
4449;BME280;2237;51.870;6.160;2022-07-29T01:51:18;101525.06;;;19.99;50.22
4449;BME280;2237;51.870;6.160;2022-07-29T01:53:51;101524.19;;;19.98;50.24
4449;BME280;2237;51.870;6.160;2022-07-29T01:56:19;101522.31;;;20.00;50.16
4449;BME280;2237;51.870;6.160;2022-07-29T01:58:48;101539.75;;;20.04;50.01
4449;BME280;2237;51.870;6.160;2022-07-29T02:01:15;101548.22;;;19.94;50.46
4449;BME280;2237;51.870;6.160;2022-07-29T02:03:45;101567.78;;;19.54;51.79
4449;BME280;2237;51.870;6.160;2022-07-29T02:06:15;101569.41;;;19.19;53.62
4449;BME280;2237;51.870;6.160;2022-07-29T02:08:45;101575.69;;;18.98;54.80
4449;BME280;2237;51.870;6.160;2022-07-29T02:11:13;101575.69;;;18.98;54.78
4449;BME280;2237;51.870;6.160;2022-07-29T02:13:41;101574.13;;;19.12;54.39
4449;BME280;2237;51.870;6.160;2022-07-29T02:16:09;101571.81;;;19.05;55.21
4449;BME280;2237;51.870;6.160;2022-07-29T02:18:39;101565.41;;;19.10;55.53
4449;BME280;2237;51.870;6.160;2022-07-29T02:21:08;101562.44;;;19.18;57.35
4449;BME280;2237;51.870;6.160;2022-07-29T02:23:41;101565.41;;;19.10;58.74
4449;BME280;2237;51.870;6.160;2022-07-29T02:26:17;101573.38;;;18.90;60.56
4449;BME280;2237;51.870;6.160;2022-07-29T02:28:46;101577.94;;;18.87;61.66
4449;BME280;2237;51.870;6.160;2022-07-29T02:31:14;101573.50;;;18.87;62.63
4449;BME280;2237;51.870;6.160;2022-07-29T02:33:44;101580.19;;;18.76;63.81
4449;BME280;2237;51.870;6.160;2022-07-29T02:36:11;101582.44;;;18.85;64.29
4449;BME280;2237;51.870;6.160;2022-07-29T02:38:41;101572.50;;;18.90;65.02
4449;BME280;2237;51.870;6.160;2022-07-29T02:41:28;101567.22;;;18.90;65.12
4449;BME280;2237;51.870;6.160;2022-07-29T02:44:02;101560.78;;;18.97;65.44
4449;BME280;2237;51.870;6.160;2022-07-29T02:46:34;101562.50;;;18.98;65.29
4449;BME280;2237;51.870;6.160;2022-07-29T02:49:13;101567.09;;;18.93;64.08
4449;BME280;2237;51.870;6.160;2022-07-29T02:52:07;101563.59;;;18.92;65.67
4449;BME280;2237;51.870;6.160;2022-07-29T02:54:56;101556.53;;;18.93;66.20
4449;BME280;2237;51.870;6.160;2022-07-29T02:57:34;101565.13;;;18.98;66.98
4449;BME280;2237;51.870;6.160;2022-07-29T03:00:21;101561.81;;;18.93;66.97
4449;BME280;2237;51.870;6.160;2022-07-29T03:02:52;101553.13;;;18.91;67.24
4449;BME280;2237;51.870;6.160;2022-07-29T03:05:20;101550.34;;;18.94;68.02
4449;BME280;2237;51.870;6.160;2022-07-29T03:07:54;101551.53;;;18.87;68.57
4449;BME280;2237;51.870;6.160;2022-07-29T03:10:23;101545.88;;;18.76;69.39
4449;BME280;2237;51.870;6.160;2022-07-29T03:12:52;101544.66;;;18.64;70.46
4449;BME280;2237;51.870;6.160;2022-07-29T03:15:21;101533.81;;;18.51;70.88
4449;BME280;2237;51.870;6.160;2022-07-29T03:17:51;101532.69;;;18.35;73.28
4449;BME280;2237;51.870;6.160;2022-07-29T03:20:18;101511.00;;;18.29;74.36
4449;BME280;2237;51.870;6.160;2022-07-29T03:22:45;101510.09;;;18.30;73.73
4449;BME280;2237;51.870;6.160;2022-07-29T03:25:16;101495.25;;;18.27;74.04
4449;BME280;2237;51.870;6.160;2022-07-29T03:27:43;101498.75;;;18.28;74.20
4449;BME280;2237;51.870;6.160;2022-07-29T03:30:11;101483.13;;;18.23;74.60
4449;BME280;2237;51.870;6.160;2022-07-29T03:32:47;101473.53;;;18.22;74.75
4449;BME280;2237;51.870;6.160;2022-07-29T03:35:14;101462.28;;;18.17;74.99
4449;BME280;2237;51.870;6.160;2022-07-29T03:37:43;101442.69;;;18.04;75.41
4449;BME280;2237;51.870;6.160;2022-07-29T03:40:13;101439.53;;;17.96;75.76
4449;BME280;2237;51.870;6.160;2022-07-29T03:42:42;101433.91;;;17.83;76.39
4449;BME280;2237;51.870;6.160;2022-07-29T03:45:13;101431.47;;;17.79;76.31
4449;BME280;2237;51.870;6.160;2022-07-29T03:47:46;101444.09;;;17.71;76.44
4449;BME280;2237;51.870;6.160;2022-07-29T03:50:18;101459.25;;;17.66;76.62
4449;BME280;2237;51.870;6.160;2022-07-29T03:52:47;101464.59;;;17.64;77.38
4449;BME280;2237;51.870;6.160;2022-07-29T03:55:14;101477.81;;;17.63;76.29
4449;BME280;2237;51.870;6.160;2022-07-29T03:57:44;101495.72;;;17.55;75.10
4449;BME280;2237;51.870;6.160;2022-07-29T04:00:11;101496.91;;;17.46;76.01
4449;BME280;2237;51.870;6.160;2022-07-29T04:02:39;101487.28;;;17.45;76.34
4449;BME280;2237;51.870;6.160;2022-07-29T04:05:12;101479.09;;;17.52;75.87
4449;BME280;2237;51.870;6.160;2022-07-29T04:07:40;101476.09;;;17.62;75.82
4449;BME280;2237;51.870;6.160;2022-07-29T04:10:07;101478.41;;;17.69;75.88
4449;BME280;2237;51.870;6.160;2022-07-29T04:12:34;101467.69;;;17.74;76.01
4449;BME280;2237;51.870;6.160;2022-07-29T04:15:03;101463.88;;;17.81;76.03
4449;BME280;2237;51.870;6.160;2022-07-29T04:17:30;101465.31;;;17.88;75.14
4449;BME280;2237;51.870;6.160;2022-07-29T04:19:56;101470.41;;;17.92;74.72
4449;BME280;2237;51.870;6.160;2022-07-29T04:22:23;101478.50;;;17.88;74.28
4449;BME280;2237;51.870;6.160;2022-07-29T04:24:50;101474.22;;;17.85;74.41
4449;BME280;2237;51.870;6.160;2022-07-29T04:27:17;101472.66;;;17.81;74.65
4449;BME280;2237;51.870;6.160;2022-07-29T04:29:46;101463.81;;;17.82;74.73
4449;BME280;2237;51.870;6.160;2022-07-29T04:32:22;101459.53;;;17.80;74.56
4449;BME280;2237;51.870;6.160;2022-07-29T04:34:49;101452.16;;;17.88;74.21
4449;BME280;2237;51.870;6.160;2022-07-29T04:37:16;101455.72;;;17.87;73.92
4449;BME280;2237;51.870;6.160;2022-07-29T04:39:42;101457.53;;;17.85;73.76
4449;BME280;2237;51.870;6.160;2022-07-29T04:42:09;101456.09;;;17.78;74.06
4449;BME280;2237;51.870;6.160;2022-07-29T04:44:36;101467.56;;;17.77;74.23
4449;BME280;2237;51.870;6.160;2022-07-29T04:47:08;101480.81;;;17.75;73.90
4449;BME280;2237;51.870;6.160;2022-07-29T04:49:38;101506.34;;;17.73;73.52
4449;BME280;2237;51.870;6.160;2022-07-29T04:52:05;101518.94;;;17.67;73.81
4449;BME280;2237;51.870;6.160;2022-07-29T04:54:32;101514.81;;;17.60;75.48
4449;BME280;2237;51.870;6.160;2022-07-29T04:56:59;101518.97;;;17.65;75.61
4449;BME280;2237;51.870;6.160;2022-07-29T04:59:26;101535.50;;;17.69;75.22
4449;BME280;2237;51.870;6.160;2022-07-29T05:01:53;101531.00;;;17.72;74.99
4449;BME280;2237;51.870;6.160;2022-07-29T05:04:20;101538.22;;;17.67;76.81
4449;BME280;2237;51.870;6.160;2022-07-29T05:06:47;101560.09;;;17.69;76.51
4449;BME280;2237;51.870;6.160;2022-07-29T05:09:14;101555.25;;;17.59;76.69
4449;BME280;2237;51.870;6.160;2022-07-29T05:11:41;101560.09;;;17.69;76.41
4449;BME280;2237;51.870;6.160;2022-07-29T05:14:07;101559.41;;;17.86;75.61
4449;BME280;2237;51.870;6.160;2022-07-29T05:16:34;101553.63;;;17.98;74.69
4449;BME280;2237;51.870;6.160;2022-07-29T05:19:01;101541.81;;;18.08;74.63
4449;BME280;2237;51.870;6.160;2022-07-29T05:21:28;101539.69;;;18.16;73.85
4449;BME280;2237;51.870;6.160;2022-07-29T05:23:54;101538.50;;;18.23;73.24
4449;BME280;2237;51.870;6.160;2022-07-29T05:26:21;101536.66;;;18.25;73.36
4449;BME280;2237;51.870;6.160;2022-07-29T05:28:48;101537.59;;;18.24;73.28
4449;BME280;2237;51.870;6.160;2022-07-29T05:31:15;101537.50;;;18.26;73.46
4449;BME280;2237;51.870;6.160;2022-07-29T05:33:42;101536.81;;;18.22;73.66
4449;BME280;2237;51.870;6.160;2022-07-29T05:36:09;101534.22;;;18.21;73.85
4449;BME280;2237;51.870;6.160;2022-07-29T05:38:35;101528.88;;;18.22;73.84
4449;BME280;2237;51.870;6.160;2022-07-29T05:41:03;101532.97;;;18.29;73.43
4449;BME280;2237;51.870;6.160;2022-07-29T05:43:31;101532.84;;;18.32;73.37
4449;BME280;2237;51.870;6.160;2022-07-29T05:45:58;101536.13;;;18.37;73.50
4449;BME280;2237;51.870;6.160;2022-07-29T05:48:25;101530.00;;;18.37;73.21
4449;BME280;2237;51.870;6.160;2022-07-29T05:50:52;101530.59;;;18.43;73.16
4449;BME280;2237;51.870;6.160;2022-07-29T05:53:18;101535.63;;;18.49;73.17
4449;BME280;2237;51.870;6.160;2022-07-29T05:55:47;101542.50;;;18.53;72.20
4449;BME280;2237;51.870;6.160;2022-07-29T05:58:14;101532.06;;;18.50;71.94
4449;BME280;2237;51.870;6.160;2022-07-29T06:00:41;101527.53;;;18.54;71.80
4449;BME280;2237;51.870;6.160;2022-07-29T06:03:07;101523.63;;;18.63;71.87
4449;BME280;2237;51.870;6.160;2022-07-29T06:05:34;101529.41;;;18.71;71.68
4449;BME280;2237;51.870;6.160;2022-07-29T06:08:01;101528.22;;;18.78;70.87
4449;BME280;2237;51.870;6.160;2022-07-29T06:10:27;101534.56;;;18.74;70.12
4449;BME280;2237;51.870;6.160;2022-07-29T06:12:54;101528.91;;;18.81;70.44
4449;BME280;2237;51.870;6.160;2022-07-29T06:15:21;101527.50;;;18.93;70.11
4449;BME280;2237;51.870;6.160;2022-07-29T06:17:47;101523.03;;;18.95;69.15
4449;BME280;2237;51.870;6.160;2022-07-29T06:20:30;101520.16;;;18.99;69.62
4449;BME280;2237;51.870;6.160;2022-07-29T06:22:58;101508.88;;;18.96;68.99
4449;BME280;2237;51.870;6.160;2022-07-29T06:25:25;101509.59;;;18.81;68.88
4449;BME280;2237;51.870;6.160;2022-07-29T06:27:52;101510.84;;;18.72;69.56
4449;BME280;2237;51.870;6.160;2022-07-29T06:30:18;101515.81;;;18.80;69.89
4449;BME280;2237;51.870;6.160;2022-07-29T06:32:45;101513.31;;;18.77;70.17
4449;BME280;2237;51.870;6.160;2022-07-29T06:35:11;101507.56;;;18.67;70.22
4449;BME280;2237;51.870;6.160;2022-07-29T06:37:58;101510.94;;;18.71;69.86
4449;BME280;2237;51.870;6.160;2022-07-29T06:40:26;101514.31;;;18.74;69.66
4449;BME280;2237;51.870;6.160;2022-07-29T06:43:11;101532.91;;;18.90;69.31
4449;BME280;2237;51.870;6.160;2022-07-29T06:45:37;101534.88;;;19.05;68.57
4449;BME280;2237;51.870;6.160;2022-07-29T06:48:07;101538.44;;;19.23;67.77
4449;BME280;2237;51.870;6.160;2022-07-29T06:50:34;101535.75;;;19.24;67.34
4449;BME280;2237;51.870;6.160;2022-07-29T06:53:00;101549.16;;;19.38;67.01
4449;BME280;2237;51.870;6.160;2022-07-29T06:55:27;101533.81;;;19.46;66.31
4449;BME280;2237;51.870;6.160;2022-07-29T06:57:53;101526.47;;;19.53;65.98
4449;BME280;2237;51.870;6.160;2022-07-29T07:00:20;101526.19;;;19.59;65.61
4449;BME280;2237;51.870;6.160;2022-07-29T07:02:46;101524.75;;;19.52;66.13
4449;BME280;2237;51.870;6.160;2022-07-29T07:05:13;101521.63;;;19.44;66.00
4449;BME280;2237;51.870;6.160;2022-07-29T07:07:40;101521.78;;;19.41;66.33
4449;BME280;2237;51.870;6.160;2022-07-29T07:10:08;101522.03;;;19.16;64.89
4449;BME280;2237;51.870;6.160;2022-07-29T07:12:35;101518.88;;;19.08;66.35
4449;BME280;2237;51.870;6.160;2022-07-29T07:15:02;101518.13;;;19.06;66.35
4449;BME280;2237;51.870;6.160;2022-07-29T07:17:29;101513.97;;;19.00;66.17
4449;BME280;2237;51.870;6.160;2022-07-29T07:19:55;101531.38;;;19.04;66.33
4449;BME280;2237;51.870;6.160;2022-07-29T07:22:22;101537.78;;;18.99;66.11
4449;BME280;2237;51.870;6.160;2022-07-29T07:24:48;101540.06;;;18.88;66.21
4449;BME280;2237;51.870;6.160;2022-07-29T07:27:15;101540.69;;;18.93;66.87
4449;BME280;2237;51.870;6.160;2022-07-29T07:29:42;101549.97;;;19.01;66.50
4449;BME280;2237;51.870;6.160;2022-07-29T07:32:11;101555.22;;;19.03;66.07
4449;BME280;2237;51.870;6.160;2022-07-29T07:34:39;101545.69;;;18.99;66.00
4449;BME280;2237;51.870;6.160;2022-07-29T07:37:06;101550.13;;;18.98;66.12
4449;BME280;2237;51.870;6.160;2022-07-29T07:39:32;101564.81;;;19.04;66.25
4449;BME280;2237;51.870;6.160;2022-07-29T07:41:59;101560.41;;;19.04;65.76
4449;BME280;2237;51.870;6.160;2022-07-29T07:44:25;101552.84;;;18.97;65.40
4449;BME280;2237;51.870;6.160;2022-07-29T07:46:52;101546.34;;;19.04;65.78
4449;BME280;2237;51.870;6.160;2022-07-29T07:49:20;101555.78;;;19.09;65.47
4449;BME280;2237;51.870;6.160;2022-07-29T07:51:47;101555.28;;;19.20;65.26
4449;BME280;2237;51.870;6.160;2022-07-29T07:54:16;101554.22;;;19.24;65.25
4449;BME280;2237;51.870;6.160;2022-07-29T07:56:43;101560.63;;;19.37;65.08
4449;BME280;2237;51.870;6.160;2022-07-29T07:59:10;101552.31;;;19.46;64.56
4449;BME280;2237;51.870;6.160;2022-07-29T08:01:37;101557.31;;;19.52;65.00
4449;BME280;2237;51.870;6.160;2022-07-29T08:04:21;101563.72;;;19.65;65.13
4449;BME280;2237;51.870;6.160;2022-07-29T08:06:53;101567.41;;;19.80;64.83
4449;BME280;2237;51.870;6.160;2022-07-29T08:09:23;101564.69;;;19.82;63.56
4449;BME280;2237;51.870;6.160;2022-07-29T08:11:56;101560.78;;;19.71;62.77
4449;BME280;2237;51.870;6.160;2022-07-29T08:14:23;101565.75;;;19.78;63.78
4449;BME280;2237;51.870;6.160;2022-07-29T08:16:50;101576.50;;;19.92;62.80
4449;BME280;2237;51.870;6.160;2022-07-29T08:19:17;101574.19;;;20.03;62.77
4449;BME280;2237;51.870;6.160;2022-07-29T08:21:44;101577.88;;;20.17;62.86
4449;BME280;2237;51.870;6.160;2022-07-29T08:24:11;101575.75;;;20.25;62.82
4449;BME280;2237;51.870;6.160;2022-07-29T08:26:56;101571.75;;;20.17;63.84
4449;BME280;2237;51.870;6.160;2022-07-29T08:29:23;101563.81;;;20.17;63.57
4449;BME280;2237;51.870;6.160;2022-07-29T08:31:49;101562.78;;;20.19;63.22
4449;BME280;2237;51.870;6.160;2022-07-29T08:34:16;101566.47;;;20.17;63.37
4449;BME280;2237;51.870;6.160;2022-07-29T08:36:43;101559.13;;;20.22;63.31
4449;BME280;2237;51.870;6.160;2022-07-29T08:39:16;101566.13;;;20.23;62.81
4449;BME280;2237;51.870;6.160;2022-07-29T08:41:42;101551.34;;;20.02;61.95
4449;BME280;2237;51.870;6.160;2022-07-29T08:44:23;101562.97;;;19.81;63.02
4449;BME280;2237;51.870;6.160;2022-07-29T08:46:56;101562.25;;;19.77;62.91
4449;BME280;2237;51.870;6.160;2022-07-29T08:49:23;101577.09;;;19.80;62.99
4449;BME280;2237;51.870;6.160;2022-07-29T08:51:50;101589.09;;;19.87;62.91
4449;BME280;2237;51.870;6.160;2022-07-29T08:54:17;101584.53;;;19.90;63.74
4449;BME280;2237;51.870;6.160;2022-07-29T08:56:48;101594.41;;;19.87;64.52
4449;BME280;2237;51.870;6.160;2022-07-29T08:59:19;101594.16;;;19.91;64.82
4449;BME280;2237;51.870;6.160;2022-07-29T09:01:52;101596.44;;;19.99;64.74
4449;BME280;2237;51.870;6.160;2022-07-29T09:04:20;101585.34;;;20.09;64.36
4449;BME280;2237;51.870;6.160;2022-07-29T09:06:51;101585.78;;;20.17;63.43
4449;BME280;2237;51.870;6.160;2022-07-29T09:09:18;101589.66;;;20.29;62.10
4449;BME280;2237;51.870;6.160;2022-07-29T09:11:45;101582.22;;;20.37;62.84
4449;BME280;2237;51.870;6.160;2022-07-29T09:14:12;101576.59;;;20.60;62.75
4449;BME280;2237;51.870;6.160;2022-07-29T09:16:55;101574.41;;;20.84;62.80
4449;BME280;2237;51.870;6.160;2022-07-29T09:19:30;101581.50;;;21.01;61.77
4449;BME280;2237;51.870;6.160;2022-07-29T09:21:59;101591.06;;;21.36;60.71
4449;BME280;2237;51.870;6.160;2022-07-29T09:24:44;101603.03;;;21.74;57.99
4449;BME280;2237;51.870;6.160;2022-07-29T09:27:25;101603.28;;;22.01;56.80
4449;BME280;2237;51.870;6.160;2022-07-29T09:30:06;101605.69;;;22.35;55.39
4449;BME280;2237;51.870;6.160;2022-07-29T09:32:53;101598.81;;;22.61;55.12
4449;BME280;2237;51.870;6.160;2022-07-29T09:35:22;101604.31;;;22.58;54.23
4449;BME280;2237;51.870;6.160;2022-07-29T09:37:52;101598.25;;;22.56;53.79
4449;BME280;2237;51.870;6.160;2022-07-29T09:40:25;101596.28;;;22.60;52.97
4449;BME280;2237;51.870;6.160;2022-07-29T09:42:55;101598.63;;;22.50;53.95
4449;BME280;2237;51.870;6.160;2022-07-29T09:45:31;101583.38;;;22.24;53.11
4449;BME280;2237;51.870;6.160;2022-07-29T09:47:58;101585.34;;;22.20;54.17
4449;BME280;2237;51.870;6.160;2022-07-29T09:50:39;101597.97;;;22.17;55.55
4449;BME280;2237;51.870;6.160;2022-07-29T09:53:11;101597.28;;;22.13;55.54
4449;BME280;2237;51.870;6.160;2022-07-29T09:55:50;101596.03;;;22.34;54.93
4449;BME280;2237;51.870;6.160;2022-07-29T09:58:20;101596.97;;;22.63;54.36
4449;BME280;2237;51.870;6.160;2022-07-29T10:00:48;101595.66;;;22.70;54.00
4449;BME280;2237;51.870;6.160;2022-07-29T10:03:16;101590.53;;;22.81;53.14
4449;BME280;2237;51.870;6.160;2022-07-29T10:05:45;101589.97;;;22.90;53.20
4449;BME280;2237;51.870;6.160;2022-07-29T10:08:12;101591.69;;;23.05;52.93
4449;BME280;2237;51.870;6.160;2022-07-29T10:10:41;101584.19;;;23.26;51.79
4449;BME280;2237;51.870;6.160;2022-07-29T10:13:10;101575.75;;;23.20;52.53
4449;BME280;2237;51.870;6.160;2022-07-29T10:15:43;101583.25;;;23.13;51.66
4449;BME280;2237;51.870;6.160;2022-07-29T10:18:14;101578.13;;;23.24;51.88
4449;BME280;2237;51.870;6.160;2022-07-29T10:20:46;101581.16;;;23.18;51.38
4449;BME280;2237;51.870;6.160;2022-07-29T10:23:14;101590.72;;;23.35;51.71
4449;BME280;2237;51.870;6.160;2022-07-29T10:25:41;101583.16;;;23.43;52.12
4449;BME280;2237;51.870;6.160;2022-07-29T10:28:12;101584.94;;;23.56;51.37
4449;BME280;2237;51.870;6.160;2022-07-29T10:30:46;101594.38;;;23.75;50.22
4449;BME280;2237;51.870;6.160;2022-07-29T10:41:39;101586.34;;;25.05;45.53
4449;BME280;2237;51.870;6.160;2022-07-29T10:44:22;101585.34;;;25.32;45.32
4449;BME280;2237;51.870;6.160;2022-07-29T10:46:51;101583.53;;;25.45;44.61
4449;BME280;2237;51.870;6.160;2022-07-29T10:49:22;101577.91;;;25.73;44.88
4449;BME280;2237;51.870;6.160;2022-07-29T10:52:07;101577.94;;;25.84;43.75
4449;BME280;2237;51.870;6.160;2022-07-29T10:59:40;101580.09;;;25.55;43.01
4449;BME280;2237;51.870;6.160;2022-07-29T11:05:12;101577.56;;;25.54;43.13
4449;BME280;2237;51.870;6.160;2022-07-29T11:08:16;101577.41;;;25.92;42.94
4449;BME280;2237;51.870;6.160;2022-07-29T11:10:27;101571.16;;;26.38;42.23
4449;BME280;2237;51.870;6.160;2022-07-29T11:12:57;101568.28;;;26.53;40.41
4449;BME280;2237;51.870;6.160;2022-07-29T11:15:24;101577.91;;;26.77;41.23
4449;BME280;2237;51.870;6.160;2022-07-29T11:23:29;101573.19;;;27.25;40.11
4449;BME280;2237;51.870;6.160;2022-07-29T11:31:09;101576.63;;;26.94;38.90
4449;BME280;2237;51.870;6.160;2022-07-29T11:33:37;101572.97;;;26.95;39.74
4449;BME280;2237;51.870;6.160;2022-07-29T11:36:22;101576.84;;;26.80;37.90
4449;BME280;2237;51.870;6.160;2022-07-29T11:39:25;101571.47;;;26.69;39.12
4449;BME280;2237;51.870;6.160;2022-07-29T11:45:10;101579.91;;;26.41;39.82
4449;BME280;2237;51.870;6.160;2022-07-29T11:47:59;101575.03;;;26.34;40.94
4449;BME280;2237;51.870;6.160;2022-07-29T11:50:46;101570.66;;;26.33;40.90
4449;BME280;2237;51.870;6.160;2022-07-29T11:53:14;101570.22;;;26.16;41.00
4449;BME280;2237;51.870;6.160;2022-07-29T11:56:01;101569.91;;;25.97;42.12
4449;BME280;2237;51.870;6.160;2022-07-29T11:58:30;101569.00;;;25.85;40.41
4449;BME280;2237;51.870;6.160;2022-07-29T12:00:57;101564.19;;;25.77;41.55
4449;BME280;2237;51.870;6.160;2022-07-29T12:03:30;101560.25;;;25.59;40.60
4449;BME280;2237;51.870;6.160;2022-07-29T12:06:17;101568.06;;;25.50;41.62
4449;BME280;2237;51.870;6.160;2022-07-29T12:08:46;101566.25;;;25.38;41.76
4449;BME280;2237;51.870;6.160;2022-07-29T12:11:18;101565.28;;;25.39;42.59
4449;BME280;2237;51.870;6.160;2022-07-29T12:13:46;101562.22;;;25.32;42.06
4449;BME280;2237;51.870;6.160;2022-07-29T12:16:15;101559.34;;;25.22;42.42
4449;BME280;2237;51.870;6.160;2022-07-29T12:18:59;101570.44;;;25.16;42.54
4449;BME280;2237;51.870;6.160;2022-07-29T12:21:27;101565.25;;;25.02;42.93
4449;BME280;2237;51.870;6.160;2022-07-29T12:23:57;101558.41;;;25.11;43.63
4449;BME280;2237;51.870;6.160;2022-07-29T12:26:34;101560.75;;;25.15;42.36
4449;BME280;2237;51.870;6.160;2022-07-29T12:29:01;101559.66;;;25.31;42.02
4449;BME280;2237;51.870;6.160;2022-07-29T12:31:28;101551.97;;;25.39;41.74
4449;BME280;2237;51.870;6.160;2022-07-29T12:34:11;101553.88;;;25.73;42.48
4449;BME280;2237;51.870;6.160;2022-07-29T12:36:38;101558.34;;;25.96;42.57
4449;BME280;2237;51.870;6.160;2022-07-29T12:39:06;101549.72;;;26.16;41.85
4449;BME280;2237;51.870;6.160;2022-07-29T12:41:35;101559.00;;;26.34;41.90
4449;BME280;2237;51.870;6.160;2022-07-29T12:44:04;101557.47;;;26.54;41.44
4449;BME280;2237;51.870;6.160;2022-07-29T12:46:31;101560.06;;;26.78;40.55
4449;BME280;2237;51.870;6.160;2022-07-29T12:48:57;101568.34;;;27.08;39.23
4449;BME280;2237;51.870;6.160;2022-07-29T12:51:38;101558.00;;;27.26;38.45
4449;BME280;2237;51.870;6.160;2022-07-29T12:54:14;101555.19;;;27.49;38.93
4449;BME280;2237;51.870;6.160;2022-07-29T12:56:42;101564.06;;;28.04;38.01
4449;BME280;2237;51.870;6.160;2022-07-29T12:59:21;101542.19;;;28.40;36.37
4449;BME280;2237;51.870;6.160;2022-07-29T13:01:50;101553.78;;;28.92;35.56
4449;BME280;2237;51.870;6.160;2022-07-29T13:04:32;101549.06;;;29.05;34.07
4449;BME280;2237;51.870;6.160;2022-07-29T13:06:59;101557.50;;;29.31;33.10
4449;BME280;2237;51.870;6.160;2022-07-29T13:09:47;101551.59;;;29.37;33.69
4449;BME280;2237;51.870;6.160;2022-07-29T13:12:14;101555.22;;;29.95;32.35
4449;BME280;2237;51.870;6.160;2022-07-29T13:14:43;101554.88;;;30.36;31.66
4449;BME280;2237;51.870;6.160;2022-07-29T13:17:19;101550.84;;;30.78;31.38
4449;BME280;2237;51.870;6.160;2022-07-29T13:20:04;101552.59;;;31.34;30.94
4449;BME280;2237;51.870;6.160;2022-07-29T13:22:34;101554.91;;;31.56;30.52
4449;BME280;2237;51.870;6.160;2022-07-29T13:25:04;101560.13;;;31.75;30.18
4449;BME280;2237;51.870;6.160;2022-07-29T13:27:38;101549.91;;;31.79;28.82
4449;BME280;2237;51.870;6.160;2022-07-29T13:30:06;101557.97;;;32.32;28.59
4449;BME280;2237;51.870;6.160;2022-07-29T13:32:36;101565.00;;;32.25;27.54
4449;BME280;2237;51.870;6.160;2022-07-29T13:35:05;101552.72;;;32.30;26.63
4449;BME280;2237;51.870;6.160;2022-07-29T13:37:38;101561.34;;;32.77;25.76
4449;BME280;2237;51.870;6.160;2022-07-29T13:40:09;101546.19;;;33.10;25.14
4449;BME280;2237;51.870;6.160;2022-07-29T13:42:40;101536.25;;;33.11;25.33
4449;BME280;2237;51.870;6.160;2022-07-29T13:45:09;101540.78;;;33.10;26.80
4449;BME280;2237;51.870;6.160;2022-07-29T13:47:37;101537.13;;;32.85;26.04
4449;BME280;2237;51.870;6.160;2022-07-29T13:50:06;101539.66;;;32.35;26.34
4449;BME280;2237;51.870;6.160;2022-07-29T13:52:41;101543.50;;;32.33;26.68
4449;BME280;2237;51.870;6.160;2022-07-29T13:55:08;101542.16;;;33.14;26.65
4449;BME280;2237;51.870;6.160;2022-07-29T13:57:37;101549.22;;;35.87;23.74
4449;BME280;2237;51.870;6.160;2022-07-29T14:00:04;101542.44;;;39.67;19.56
4449;BME280;2237;51.870;6.160;2022-07-29T14:02:33;101537.38;;;44.07;15.51
4449;BME280;2237;51.870;6.160;2022-07-29T14:05:03;101531.66;;;47.01;12.83
4449;BME280;2237;51.870;6.160;2022-07-29T14:07:34;101525.13;;;49.84;10.32
4449;BME280;2237;51.870;6.160;2022-07-29T14:10:00;101527.66;;;51.44;8.62
4449;BME280;2237;51.870;6.160;2022-07-29T14:12:27;101533.19;;;53.07;8.17